createdAt,value
2018-12-20T00:00:03.609Z,17.27
2018-12-20T00:02:34.175Z,19.70
2018-12-20T00:05:04.777Z,19.50
2018-12-20T00:07:35.325Z,19.27
2018-12-20T00:10:06.762Z,19.20
2018-12-20T00:12:37.580Z,18.40
2018-12-20T00:15:08.452Z,19.40
2018-12-20T00:17:43.981Z,19.90
2018-12-20T00:20:15.545Z,21.50
2018-12-20T00:22:46.627Z,18.30
2018-12-20T00:25:17.336Z,17.73
2018-12-20T00:27:48.086Z,17.93
2018-12-20T00:30:20.272Z,16.73
2018-12-20T00:32:50.991Z,18.47
2018-12-20T00:35:22.484Z,19.40
2018-12-20T00:37:53.129Z,19.07
2018-12-20T00:40:25.071Z,19.30
2018-12-20T00:42:55.882Z,19.60
2018-12-20T00:45:27.584Z,18.80
2018-12-20T00:47:58.398Z,19.83
2018-12-20T00:50:29.276Z,18.67
2018-12-20T00:53:00.352Z,20.33
2018-12-20T00:55:31.464Z,19.33
2018-12-20T00:58:02.119Z,19.40
2018-12-20T01:00:33.079Z,20.67
2018-12-20T01:03:04.184Z,19.90
2018-12-20T01:05:35.026Z,19.00
2018-12-20T01:08:05.902Z,18.20
2018-12-20T01:10:36.652Z,19.40
2018-12-20T01:13:07.348Z,18.77
2018-12-20T01:15:38.632Z,19.70
2018-12-20T01:18:09.872Z,19.27
2018-12-20T01:20:40.649Z,22.43
2018-12-20T01:23:11.321Z,21.23
2018-12-20T01:25:42.020Z,21.60
2018-12-20T01:28:12.746Z,21.03
2018-12-20T01:30:43.546Z,21.47
2018-12-20T01:33:14.093Z,20.93
2018-12-20T01:35:44.745Z,18.33
2018-12-20T01:38:15.595Z,20.80
2018-12-20T01:40:46.719Z,18.77
2018-12-20T01:43:17.425Z,19.73
2018-12-20T01:45:47.883Z,18.57
2018-12-20T01:48:19.152Z,19.53
2018-12-20T01:50:49.851Z,21.30
2018-12-20T01:53:20.533Z,20.10
2018-12-20T01:55:51.073Z,19.63
2018-12-20T01:58:21.940Z,21.70
2018-12-20T02:00:53.329Z,21.33
2018-12-20T02:03:23.764Z,23.00
2018-12-20T02:05:54.357Z,19.97
2018-12-20T02:08:25.019Z,22.73
2018-12-20T02:10:55.743Z,21.53
2018-12-20T02:13:26.214Z,21.40
2018-12-20T02:15:56.823Z,22.87
2018-12-20T02:18:27.493Z,23.00
2018-12-20T02:20:58.340Z,22.23
2018-12-20T02:23:28.910Z,21.57
2018-12-20T02:25:59.534Z,23.40
2018-12-20T02:28:31.569Z,22.70
2018-12-20T02:31:02.159Z,22.73
2018-12-20T02:33:33.199Z,22.00
2018-12-20T02:36:03.857Z,23.27
2018-12-20T02:38:34.559Z,23.90
2018-12-20T02:41:05.382Z,23.83
2018-12-20T02:43:35.863Z,24.83
2018-12-20T02:46:07.052Z,22.93
2018-12-20T02:48:39.441Z,21.47
2018-12-20T02:51:10.316Z,19.67
2018-12-20T02:53:40.925Z,21.20
2018-12-20T02:56:11.523Z,22.37
2018-12-20T02:58:42.065Z,22.93
2018-12-20T03:01:12.922Z,22.73
2018-12-20T03:03:43.640Z,19.73
2018-12-20T03:06:14.277Z,21.43
2018-12-20T03:08:44.978Z,22.20
2018-12-20T03:11:15.726Z,22.13
2018-12-20T03:13:46.413Z,20.63
2018-12-20T03:16:17.016Z,22.43
2018-12-20T03:18:47.531Z,23.17
2018-12-20T03:21:18.479Z,24.37
2018-12-20T03:23:48.927Z,21.50
2018-12-20T03:26:19.779Z,23.17
2018-12-20T03:28:51.186Z,21.43
2018-12-20T03:31:22.014Z,21.33
2018-12-20T03:33:52.657Z,21.40
2018-12-20T03:36:23.461Z,20.87
2018-12-20T03:38:54.094Z,21.07
2018-12-20T03:41:24.627Z,20.83
2018-12-20T03:43:55.251Z,21.47
2018-12-20T03:46:25.906Z,20.03
2018-12-20T03:48:56.703Z,21.13
2018-12-20T03:51:27.580Z,21.50
2018-12-20T03:53:58.451Z,21.33
2018-12-20T03:56:29.480Z,20.37
2018-12-20T03:59:00.154Z,22.57
2018-12-20T04:01:31.090Z,18.77
2018-12-20T04:04:01.757Z,20.27
2018-12-20T04:06:32.315Z,21.73
2018-12-20T04:09:03.332Z,19.63
2018-12-20T04:11:34.639Z,20.70
2018-12-20T04:14:05.711Z,19.50
2018-12-20T04:16:37.554Z,20.87
2018-12-20T04:19:08.353Z,19.40
2018-12-20T04:21:39.311Z,19.90
2018-12-20T04:24:10.815Z,19.07
2018-12-20T04:26:41.409Z,18.83
2018-12-20T04:29:12.006Z,20.97
2018-12-20T04:31:42.588Z,20.97
2018-12-20T04:34:13.560Z,20.33
2018-12-20T04:36:44.205Z,18.93
2018-12-20T04:39:14.867Z,19.20
2018-12-20T04:41:45.593Z,19.03
2018-12-20T04:44:16.025Z,19.77
2018-12-20T04:46:46.671Z,17.70
2018-12-20T04:49:17.453Z,18.43
2018-12-20T04:51:48.135Z,19.40
2018-12-20T04:54:18.800Z,17.50
2018-12-20T04:56:49.918Z,19.33
2018-12-20T04:59:20.842Z,18.43
2018-12-20T05:01:51.994Z,19.27
2018-12-20T05:04:23.083Z,18.43
2018-12-20T05:06:53.654Z,17.63
2018-12-20T05:09:24.698Z,18.23
2018-12-20T05:11:55.478Z,17.80
2018-12-20T05:14:26.437Z,15.87
2018-12-20T05:16:57.740Z,17.63
2018-12-20T05:19:28.433Z,18.53
2018-12-20T05:21:59.378Z,16.93
2018-12-20T05:24:30.077Z,16.53
2018-12-20T05:27:00.711Z,17.77
2018-12-20T05:29:31.622Z,16.63
2018-12-20T05:32:02.203Z,17.33
2018-12-20T05:34:32.708Z,18.07
2018-12-20T05:37:04.261Z,16.43
2018-12-20T05:39:39.798Z,16.27
2018-12-20T05:42:10.383Z,16.50
2018-12-20T05:44:41.362Z,16.03
2018-12-20T05:47:12.390Z,16.00
2018-12-20T05:49:43.229Z,17.47
2018-12-20T05:52:13.780Z,16.43
2018-12-20T05:54:44.318Z,16.70
2018-12-20T05:57:15.984Z,16.80
2018-12-20T05:59:46.766Z,17.27
2018-12-20T06:02:17.606Z,17.67
2018-12-20T06:04:48.622Z,16.93
2018-12-20T06:07:19.423Z,16.07
2018-12-20T06:09:50.438Z,17.47
2018-12-20T06:17:23.730Z,14.47
2018-12-20T06:19:54.701Z,16.53
2018-12-20T06:22:25.686Z,15.93
2018-12-20T06:24:56.518Z,15.73
2018-12-20T06:27:28.422Z,14.97
2018-12-20T06:30:00.366Z,17.17
2018-12-20T06:32:31.568Z,15.90
2018-12-20T06:35:02.368Z,17.03
2018-12-20T06:37:33.205Z,16.67
2018-12-20T06:40:05.409Z,16.37
2018-12-20T06:42:36.257Z,16.47
2018-12-20T06:45:07.186Z,16.60
2018-12-20T06:47:37.881Z,15.77
2018-12-20T06:50:08.662Z,14.43
2018-12-20T06:52:39.718Z,16.23
2018-12-20T06:55:10.870Z,15.70
2018-12-20T06:57:41.693Z,15.67
2018-12-20T07:00:13.177Z,15.10
2018-12-20T07:02:43.865Z,16.13
2018-12-20T07:05:14.907Z,15.07
2018-12-20T07:07:50.576Z,14.13
2018-12-20T07:10:24.999Z,14.93
2018-12-20T07:12:55.775Z,15.83
2018-12-20T07:15:29.505Z,16.10
2018-12-20T07:18:00.362Z,14.87
2018-12-20T07:20:31.274Z,15.50
2018-12-20T07:23:02.261Z,16.67
2018-12-20T07:25:33.102Z,16.37
2018-12-20T07:28:03.829Z,14.23
2018-12-20T07:30:36.797Z,15.70
2018-12-20T07:33:07.591Z,13.90
2018-12-20T07:35:38.475Z,16.40
2018-12-20T07:38:09.373Z,14.17
2018-12-20T07:40:40.446Z,15.18
2018-12-20T07:43:11.265Z,15.40
2018-12-20T07:45:41.926Z,15.27
2018-12-20T07:48:12.751Z,15.23
2018-12-20T07:50:43.548Z,15.00
2018-12-20T07:53:14.387Z,15.60
2018-12-20T07:55:45.235Z,16.87
2018-12-20T07:58:16.111Z,22.27
2018-12-20T08:00:47.299Z,21.30
2018-12-20T08:03:18.253Z,16.33
2018-12-20T08:05:49.017Z,16.27
2018-12-20T08:08:20.055Z,16.43
2018-12-20T08:10:51.123Z,14.00
2018-12-20T08:13:21.994Z,15.27
2018-12-20T08:15:52.655Z,14.80
2018-12-20T08:18:23.455Z,15.97
2018-12-20T08:20:54.363Z,15.10
2018-12-20T08:23:25.047Z,14.00
2018-12-20T08:25:56.059Z,16.03
2018-12-20T08:28:27.005Z,14.93
2018-12-20T08:30:58.027Z,13.40
2018-12-20T08:33:28.967Z,15.00
2018-12-20T08:36:00.261Z,14.13
2018-12-20T08:41:26.043Z,16.13
2018-12-20T08:43:58.195Z,14.83
2018-12-20T08:46:28.910Z,15.13
2018-12-20T08:48:59.686Z,14.67
2018-12-20T08:51:30.532Z,13.77
2018-12-20T08:54:01.369Z,15.83
2018-12-20T08:56:32.115Z,21.13
2018-12-20T08:59:03.219Z,19.30
2018-12-20T09:01:34.129Z,16.23
2018-12-20T09:04:04.869Z,16.40
2018-12-20T09:06:35.615Z,16.73
2018-12-20T09:09:08.396Z,16.03
2018-12-20T09:11:39.099Z,14.53
2018-12-20T09:14:09.961Z,14.53
2018-12-20T09:16:40.755Z,16.20
2018-12-20T09:19:11.579Z,15.03
2018-12-20T09:21:42.413Z,16.27
2018-12-20T09:24:13.251Z,14.40
2018-12-20T09:26:44.121Z,17.77
2018-12-20T09:29:14.913Z,18.73
2018-12-20T09:31:45.811Z,17.03
2018-12-20T09:34:16.731Z,18.37
2018-12-20T09:36:47.700Z,43.07
2018-12-20T09:39:18.503Z,23.80
2018-12-20T09:41:49.411Z,37.63
2018-12-20T09:44:20.207Z,64.27
2018-12-20T09:46:53.224Z,52.27
2018-12-20T09:49:24.152Z,18.37
2018-12-20T09:51:54.983Z,17.23
2018-12-20T09:54:25.743Z,39.60
2018-12-20T09:56:56.713Z,33.77
2018-12-20T09:59:27.704Z,24.27
2018-12-20T10:01:58.751Z,15.47
2018-12-20T10:04:29.576Z,17.80
2018-12-20T10:07:00.411Z,18.30
2018-12-20T10:09:31.641Z,13.90
2018-12-20T10:12:03.706Z,15.00
2018-12-20T10:14:34.451Z,58.63
2018-12-20T10:17:05.297Z,78.53
2018-12-20T10:19:36.223Z,95.50
2018-12-20T10:22:06.986Z,40.23
2018-12-20T10:24:38.011Z,15.47
2018-12-20T10:27:08.765Z,18.30
2018-12-20T10:29:39.535Z,15.50
2018-12-20T10:32:10.345Z,45.97
2018-12-20T10:34:41.134Z,16.57
2018-12-20T10:37:11.885Z,21.53
2018-12-20T10:39:43.222Z,15.17
2018-12-20T10:42:14.270Z,27.73
2018-12-20T10:44:46.950Z,18.00
2018-12-20T10:47:29.197Z,19.60
2018-12-20T10:50:00.060Z,16.10
2018-12-20T10:52:31.740Z,37.53
2018-12-20T10:55:03.540Z,33.30
2018-12-20T10:57:35.869Z,30.80
2018-12-20T11:00:08.829Z,38.77
2018-12-20T11:02:46.440Z,21.20
2018-12-20T11:05:26.431Z,18.00
2018-12-20T11:08:01.506Z,16.73
2018-12-20T11:10:33.130Z,14.67
2018-12-20T11:13:09.810Z,18.87
2018-12-20T11:15:41.630Z,19.03
2018-12-20T11:18:14.295Z,13.80
2018-12-20T11:20:46.099Z,16.93
2018-12-20T11:23:17.770Z,15.87
2018-12-20T11:25:49.570Z,16.53
2018-12-20T11:28:21.170Z,14.70
2018-12-20T11:30:52.750Z,16.83
2018-12-20T11:33:24.310Z,15.73
2018-12-20T11:35:55.899Z,16.43
2018-12-20T11:38:27.610Z,16.87
2018-12-20T11:40:59.333Z,16.47
2018-12-20T11:43:31.021Z,18.20
2018-12-20T11:46:02.661Z,24.13
2018-12-20T11:48:34.684Z,102.60
2018-12-20T11:51:06.182Z,20.47
2018-12-20T11:53:37.880Z,17.87
2018-12-20T11:56:09.870Z,17.60
2018-12-20T11:58:41.593Z,15.87
2018-12-20T12:01:13.380Z,15.53
2018-12-20T12:03:45.060Z,17.30
2018-12-20T12:06:16.781Z,35.77
2018-12-20T12:08:48.390Z,24.87
2018-12-20T12:11:20.080Z,17.40
2018-12-20T12:13:51.791Z,16.67
2018-12-20T12:16:23.440Z,16.90
2018-12-20T12:18:55.210Z,28.30
2018-12-20T12:21:27.153Z,16.37
2018-12-20T12:23:58.582Z,16.23
2018-12-20T12:26:30.640Z,16.87
2018-12-20T12:29:09.950Z,21.20
2018-12-20T12:31:41.701Z,16.23
2018-12-20T12:34:13.829Z,15.77
2018-12-20T12:36:46.460Z,15.77
2018-12-20T12:39:18.910Z,13.43
2018-12-20T12:41:50.950Z,12.80
2018-12-20T12:44:22.871Z,14.90
2018-12-20T12:46:54.391Z,14.50
2018-12-20T12:49:25.770Z,13.53
2018-12-20T12:51:57.140Z,15.43
2018-12-20T12:54:28.380Z,15.43
2018-12-20T12:56:59.705Z,17.10
2018-12-20T12:59:33.336Z,16.33
2018-12-20T13:02:05.620Z,29.90
2018-12-20T13:04:39.119Z,22.83
2018-12-20T13:07:10.719Z,35.47
2018-12-20T13:09:42.422Z,30.10
2018-12-20T13:12:14.199Z,22.43
2018-12-20T13:14:47.169Z,19.40
2018-12-20T13:17:18.910Z,23.07
2018-12-20T13:19:51.549Z,28.13
2018-12-20T13:22:24.310Z,26.77
2018-12-20T13:24:56.320Z,25.63
2018-12-20T13:27:29.670Z,23.23
2018-12-20T13:30:02.680Z,25.70
2018-12-20T13:32:35.100Z,31.83
2018-12-20T13:35:07.470Z,25.63
2018-12-20T13:37:39.311Z,21.67
2018-12-20T13:40:11.281Z,20.13
2018-12-20T13:42:42.790Z,22.10
2018-12-20T13:45:15.390Z,20.97
2018-12-20T13:47:47.051Z,19.20
2018-12-20T13:50:18.582Z,24.00
2018-12-20T13:52:50.950Z,28.30
2018-12-20T13:55:24.881Z,23.40
2018-12-20T13:57:57.171Z,25.13
2018-12-20T14:00:29.491Z,27.37
2018-12-20T14:03:01.271Z,28.50
2018-12-20T14:05:34.741Z,26.20
2018-12-20T14:08:06.970Z,28.37
2018-12-20T14:10:41.670Z,30.80
2018-12-20T14:13:14.719Z,29.87
2018-12-20T14:15:46.160Z,29.80
2018-12-20T14:18:17.422Z,26.40
2018-12-20T14:20:49.312Z,26.60
2018-12-20T14:23:21.489Z,32.17
2018-12-20T14:25:54.060Z,32.27
2018-12-20T14:28:25.442Z,30.47
2018-12-20T14:30:57.401Z,31.77
2018-12-20T14:33:29.871Z,30.23
2018-12-20T14:36:01.343Z,29.07
2018-12-20T14:38:34.590Z,30.13
2018-12-20T14:41:07.490Z,29.53
2018-12-20T14:43:39.670Z,33.43
2018-12-20T14:46:12.179Z,26.57
2018-12-20T14:48:44.080Z,23.63
2018-12-20T14:51:15.579Z,28.23
2018-12-20T14:53:51.693Z,25.90
2018-12-20T14:56:25.013Z,27.60
2018-12-20T14:58:57.363Z,24.70
2018-12-20T15:01:31.973Z,24.03
2018-12-20T15:04:04.784Z,29.70
2018-12-20T15:06:37.754Z,27.53
2018-12-20T15:09:11.904Z,31.93
2018-12-20T15:11:44.152Z,29.30
2018-12-20T15:14:15.744Z,30.53
2018-12-20T15:16:47.991Z,28.13
2018-12-20T15:19:21.993Z,34.60
2018-12-20T15:21:55.993Z,30.53
2018-12-20T15:24:29.393Z,22.57
2018-12-20T15:27:00.257Z,23.53
2018-12-20T15:29:31.453Z,21.80
2018-12-20T15:32:02.793Z,26.07
2018-12-20T15:34:34.467Z,24.23
2018-12-20T15:37:05.703Z,21.17
2018-12-20T15:39:36.656Z,23.50
2018-12-20T15:42:07.638Z,25.37
2018-12-20T15:44:40.329Z,26.33
2018-12-20T15:47:11.191Z,27.77
2018-12-20T15:49:42.452Z,27.83
2018-12-20T15:52:13.626Z,25.80
2018-12-20T15:54:46.301Z,28.20
2018-12-20T15:57:17.534Z,36.47
2018-12-20T15:59:49.153Z,28.97
2018-12-20T16:02:23.123Z,28.27
2018-12-20T16:04:54.682Z,29.40
2018-12-20T16:07:30.733Z,35.17
2018-12-20T16:10:02.293Z,39.13
2018-12-20T16:12:33.733Z,47.47
2018-12-20T16:15:05.305Z,37.80
2018-12-20T16:17:38.173Z,39.30
2018-12-20T16:20:09.712Z,78.63
2018-12-20T16:22:40.667Z,96.43
2018-12-20T16:25:12.233Z,44.40
2018-12-20T16:27:43.411Z,37.93
2018-12-20T16:30:14.502Z,39.80
2018-12-20T16:32:46.223Z,38.90
2018-12-20T16:35:17.632Z,35.87
2018-12-20T16:37:50.473Z,37.77
2018-12-20T16:40:22.564Z,39.40
2018-12-20T16:42:54.333Z,34.87
2018-12-20T16:45:27.314Z,34.57
2018-12-20T16:47:58.923Z,38.40
2018-12-20T16:50:31.423Z,40.27
2018-12-20T16:53:04.314Z,43.93
2018-12-20T16:55:35.670Z,44.40
2018-12-20T16:58:06.580Z,48.23
2018-12-20T17:00:37.772Z,49.80
2018-12-20T17:03:08.748Z,43.67
2018-12-20T17:05:41.082Z,42.67
2018-12-20T17:08:11.958Z,44.90
2018-12-20T17:10:43.209Z,43.17
2018-12-20T17:13:14.052Z,44.70
2018-12-20T17:15:45.140Z,55.70
2018-12-20T17:18:16.066Z,43.47
2018-12-20T17:20:48.673Z,43.23
2018-12-20T17:23:19.828Z,43.70
2018-12-20T17:25:50.636Z,47.13
2018-12-20T17:28:21.812Z,52.33
2018-12-20T17:30:54.848Z,63.53
2018-12-20T17:33:25.773Z,69.97
2018-12-20T17:35:57.002Z,51.07
2018-12-20T17:38:28.183Z,54.23
2018-12-20T17:41:01.163Z,60.97
2018-12-20T17:43:33.743Z,66.30
2018-12-20T17:46:05.199Z,54.17
2018-12-20T17:48:37.082Z,48.63
2018-12-20T17:51:08.523Z,62.60
2018-12-20T17:53:40.064Z,54.97
2018-12-20T17:56:12.903Z,52.30
2018-12-20T17:58:44.373Z,62.40
2018-12-20T18:01:16.733Z,78.70
2018-12-20T18:03:48.803Z,68.67
2018-12-20T18:06:20.392Z,58.33
2018-12-20T18:08:52.144Z,57.00
2018-12-20T18:11:23.613Z,61.53
2018-12-20T18:13:56.214Z,66.17
2018-12-20T18:16:28.073Z,65.77
2018-12-20T18:18:59.923Z,56.03
2018-12-20T18:21:31.303Z,52.67
2018-12-20T18:24:03.283Z,60.13
2018-12-20T18:26:34.983Z,54.77
2018-12-20T18:29:06.777Z,50.97
2018-12-20T18:31:38.334Z,47.60
2018-12-20T18:34:11.063Z,45.73
2018-12-20T18:36:42.577Z,55.30
2018-12-20T18:39:14.162Z,59.40
2018-12-20T18:41:45.714Z,46.10
2018-12-20T18:44:17.213Z,48.77
2018-12-20T18:46:48.833Z,68.53
2018-12-20T18:49:20.474Z,38.53
2018-12-20T18:51:52.143Z,39.40
2018-12-20T18:54:23.562Z,42.00
2018-12-20T18:56:55.263Z,40.13
2018-12-20T18:59:27.513Z,45.47
2018-12-20T19:01:58.973Z,38.60
2018-12-20T19:04:30.583Z,32.90
2018-12-20T19:07:14.533Z,32.37
2018-12-20T19:09:47.161Z,35.60
2018-12-20T19:12:19.563Z,39.47
2018-12-20T19:14:51.953Z,31.07
2018-12-20T19:17:23.619Z,28.13
2018-12-20T19:19:56.342Z,31.10
2018-12-20T19:22:32.783Z,33.80
2018-12-20T19:25:04.333Z,33.87
2018-12-20T19:27:37.753Z,36.47
2018-12-20T19:30:11.166Z,34.97
2018-12-20T19:32:45.120Z,28.10
2018-12-20T19:35:16.038Z,29.70
2018-12-20T19:37:48.035Z,38.03
2018-12-20T19:40:19.707Z,44.73
2018-12-20T19:42:50.619Z,32.37
2018-12-20T19:45:23.090Z,47.77
2018-12-20T19:47:53.976Z,43.10
2018-12-20T19:50:26.345Z,36.10
2018-12-20T19:52:57.280Z,49.33
2018-12-20T19:55:29.037Z,34.73
2018-12-20T19:58:03.591Z,29.93
2018-12-20T20:00:34.588Z,33.33
2018-12-20T20:03:05.675Z,30.40
2018-12-20T20:05:36.887Z,31.00
2018-12-20T20:08:07.712Z,30.47
2018-12-20T20:10:38.657Z,28.17
2018-12-20T20:13:09.913Z,33.03
2018-12-20T20:15:42.415Z,30.33
2018-12-20T20:18:14.083Z,27.27
2018-12-20T20:20:45.729Z,26.50
2018-12-20T20:23:17.057Z,23.63
2018-12-20T20:25:48.201Z,22.20
2018-12-20T20:28:23.393Z,23.60
2018-12-20T20:30:54.774Z,24.30
2018-12-20T20:33:26.074Z,23.67
2018-12-20T20:35:58.853Z,25.97
2018-12-20T20:38:30.214Z,23.67
2018-12-20T20:41:01.837Z,28.33
2018-12-20T20:43:34.074Z,26.50
2018-12-20T20:46:05.633Z,24.80
2018-12-20T20:51:20.814Z,28.63
2018-12-20T20:53:53.214Z,32.77
2018-12-20T20:56:24.564Z,40.77
2018-12-20T20:58:55.445Z,41.80
2018-12-20T21:01:26.614Z,44.87
2018-12-20T21:04:03.403Z,40.47
2018-12-20T21:06:31.454Z,28.73
2018-12-20T21:09:02.831Z,35.53
2018-12-20T21:11:34.202Z,33.60
2018-12-20T21:14:05.747Z,31.90
2018-12-20T21:16:40.575Z,42.47
2018-12-20T21:19:12.186Z,31.67
2018-12-20T21:21:43.684Z,25.87
2018-12-20T21:24:15.149Z,29.13
2018-12-20T21:26:46.934Z,31.63
2018-12-20T21:29:20.115Z,33.83
2018-12-20T21:31:52.474Z,32.10
2018-12-20T21:34:23.626Z,27.67
2018-12-20T21:36:55.514Z,27.23
2018-12-20T21:39:26.757Z,24.87
2018-12-20T21:41:59.663Z,26.90
2018-12-20T21:44:31.194Z,25.07
2018-12-20T21:47:02.315Z,28.83
2018-12-20T21:49:33.664Z,29.07
2018-12-20T21:52:04.539Z,35.00
2018-12-20T21:54:36.015Z,41.20
2018-12-20T21:57:07.894Z,32.97
2018-12-20T21:59:39.224Z,30.30
2018-12-20T22:02:10.399Z,27.77
2018-12-20T22:04:42.774Z,30.43
2018-12-20T22:07:14.274Z,33.40
2018-12-20T22:09:45.334Z,24.20
2018-12-20T22:12:17.632Z,24.60
2018-12-20T22:14:48.821Z,25.77
2018-12-20T22:17:20.444Z,27.57
2018-12-20T22:19:58.573Z,24.60
2018-12-20T22:22:25.872Z,24.87
2018-12-20T22:24:57.208Z,28.47
2018-12-20T22:27:28.674Z,34.50
2018-12-20T22:30:02.104Z,23.10
2018-12-20T22:32:33.644Z,25.67
2018-12-20T22:35:05.064Z,24.70
2018-12-20T22:37:36.274Z,30.73
2018-12-20T22:40:08.954Z,31.23
2018-12-20T22:42:40.424Z,27.20
2018-12-20T22:45:12.664Z,25.27
2018-12-20T22:47:44.033Z,27.00
2018-12-20T22:50:15.674Z,22.93
2018-12-20T22:52:46.994Z,23.13
2018-12-20T22:55:18.386Z,25.80
2018-12-20T22:57:51.687Z,27.07
2018-12-20T23:00:25.024Z,28.63
2018-12-20T23:02:56.504Z,31.30
2018-12-20T23:05:29.013Z,32.87
2018-12-20T23:08:00.094Z,28.00
2018-12-20T23:10:31.264Z,26.27
2018-12-20T23:13:02.614Z,29.00
2018-12-20T23:15:33.777Z,32.53
2018-12-20T23:18:05.085Z,30.27
2018-12-20T23:20:36.463Z,31.43
2018-12-20T23:23:08.094Z,34.37
2018-12-20T23:25:39.414Z,36.57
2018-12-20T23:28:10.773Z,36.53
2018-12-20T23:30:42.173Z,32.40
2018-12-20T23:33:14.543Z,26.67
2018-12-20T23:35:45.914Z,27.37
2018-12-20T23:38:18.133Z,24.20
2018-12-20T23:40:49.335Z,25.53
2018-12-20T23:43:20.423Z,29.43
2018-12-20T23:45:51.655Z,31.27
2018-12-20T23:48:23.013Z,26.20
2018-12-20T23:50:54.444Z,23.27
2018-12-20T23:53:25.796Z,20.73
2018-12-20T23:55:57.154Z,24.73
2018-12-20T23:58:28.557Z,29.27
